sensor_id;sensor_type;location;lat;lon;timestamp;pressure;altitude;pressure_sealevel;temperature;humidity
81608;BME280;71022;48.122;11.576;2023-08-07T00:02:15;95254.31;;;12.88;65.45
81608;BME280;71022;48.122;11.576;2023-08-07T00:04:42;95263.31;;;12.85;66.90
81608;BME280;71022;48.122;11.576;2023-08-07T00:07:09;95269.44;;;13.01;65.09
81608;BME280;71022;48.122;11.576;2023-08-07T00:09:37;95274.72;;;13.13;64.39
81608;BME280;71022;48.122;11.576;2023-08-07T00:12:04;95266.50;;;12.87;65.00
81608;BME280;71022;48.122;11.576;2023-08-07T00:14:31;95275.44;;;12.76;66.13
81608;BME280;71022;48.122;11.576;2023-08-07T00:16:58;95280.03;;;12.65;66.89
81608;BME280;71022;48.122;11.576;2023-08-07T00:19:26;95273.03;;;12.71;66.26
81608;BME280;71022;48.122;11.576;2023-08-07T00:21:53;95292.66;;;12.70;66.51
81608;BME280;71022;48.122;11.576;2023-08-07T00:24:20;95290.88;;;12.55;66.70
81608;BME280;71022;48.122;11.576;2023-08-07T00:26:48;95300.81;;;12.59;66.29
81608;BME280;71022;48.122;11.576;2023-08-07T00:29:15;95285.94;;;12.67;66.12
81608;BME280;71022;48.122;11.576;2023-08-07T00:31:42;95297.94;;;12.52;67.11
81608;BME280;71022;48.122;11.576;2023-08-07T00:34:09;95293.38;;;12.63;68.26
81608;BME280;71022;48.122;11.576;2023-08-07T00:36:37;95293.34;;;12.93;66.43
81608;BME280;71022;48.122;11.576;2023-08-07T00:39:05;95290.19;;;12.61;67.35
81608;BME280;71022;48.122;11.576;2023-08-07T00:41:33;95310.63;;;12.60;66.79
81608;BME280;71022;48.122;11.576;2023-08-07T00:44:01;95309.75;;;12.83;68.03
81608;BME280;71022;48.122;11.576;2023-08-07T00:46:29;95302.94;;;12.73;67.09
81608;BME280;71022;48.122;11.576;2023-08-07T00:48:57;95307.47;;;12.58;68.66
81608;BME280;71022;48.122;11.576;2023-08-07T00:51:24;95307.28;;;12.44;70.20
81608;BME280;71022;48.122;11.576;2023-08-07T00:53:53;95309.41;;;12.54;69.52
81608;BME280;71022;48.122;11.576;2023-08-07T00:56:21;95312.41;;;12.75;70.94
81608;BME280;71022;48.122;11.576;2023-08-07T00:58:49;95310.09;;;12.77;70.18
81608;BME280;71022;48.122;11.576;2023-08-07T01:01:17;95312.09;;;12.81;71.16
81608;BME280;71022;48.122;11.576;2023-08-07T01:03:45;95303.63;;;12.66;71.36
81608;BME280;71022;48.122;11.576;2023-08-07T01:06:13;95304.63;;;12.25;72.95
81608;BME280;71022;48.122;11.576;2023-08-07T01:08:40;95305.91;;;12.05;73.36
81608;BME280;71022;48.122;11.576;2023-08-07T01:11:34;95304.44;;;12.11;74.77
81608;BME280;71022;48.122;11.576;2023-08-07T01:14:13;95301.25;;;12.09;74.94
81608;BME280;71022;48.122;11.576;2023-08-07T01:17:05;95304.38;;;12.07;75.50
81608;BME280;71022;48.122;11.576;2023-08-07T01:19:34;95310.53;;;11.97;74.94
81608;BME280;71022;48.122;11.576;2023-08-07T01:24:35;95313.00;;;12.06;75.80
81608;BME280;71022;48.122;11.576;2023-08-07T01:27:14;95303.28;;;11.89;76.35
81608;BME280;71022;48.122;11.576;2023-08-07T01:32:24;95308.66;;;11.79;76.87
81608;BME280;71022;48.122;11.576;2023-08-07T01:34:54;95326.31;;;11.78;77.83
81608;BME280;71022;48.122;11.576;2023-08-07T01:37:23;95317.78;;;11.63;78.45
81608;BME280;71022;48.122;11.576;2023-08-07T01:39:53;95332.41;;;11.90;77.22
81608;BME280;71022;48.122;11.576;2023-08-07T01:42:22;95326.47;;;12.11;75.94
81608;BME280;71022;48.122;11.576;2023-08-07T01:44:49;95334.16;;;12.02;77.31
81608;BME280;71022;48.122;11.576;2023-08-07T01:47:17;95325.97;;;12.05;76.37
81608;BME280;71022;48.122;11.576;2023-08-07T01:49:45;95335.94;;;12.13;75.55
81608;BME280;71022;48.122;11.576;2023-08-07T01:52:12;95331.44;;;12.28;76.12
81608;BME280;71022;48.122;11.576;2023-08-07T01:54:41;95336.09;;;12.24;74.17
81608;BME280;71022;48.122;11.576;2023-08-07T01:57:09;95328.25;;;12.26;74.55
81608;BME280;71022;48.122;11.576;2023-08-07T01:59:38;95333.56;;;11.89;75.07
81608;BME280;71022;48.122;11.576;2023-08-07T02:02:05;95323.28;;;12.09;76.61
81608;BME280;71022;48.122;11.576;2023-08-07T02:04:33;95332.38;;;12.13;75.66
81608;BME280;71022;48.122;11.576;2023-08-07T02:07:00;95328.66;;;12.02;75.68
81608;BME280;71022;48.122;11.576;2023-08-07T02:09:27;95331.28;;;12.17;75.82
81608;BME280;71022;48.122;11.576;2023-08-07T02:11:54;95335.88;;;12.10;75.32
81608;BME280;71022;48.122;11.576;2023-08-07T02:14:21;95332.28;;;11.83;76.43
81608;BME280;71022;48.122;11.576;2023-08-07T02:16:49;95337.75;;;11.80;77.23
81608;BME280;71022;48.122;11.576;2023-08-07T02:19:16;95348.25;;;11.97;77.17
81608;BME280;71022;48.122;11.576;2023-08-07T02:21:44;95339.69;;;12.28;75.07
81608;BME280;71022;48.122;11.576;2023-08-07T02:24:11;95344.22;;;11.91;74.96
81608;BME280;71022;48.122;11.576;2023-08-07T02:26:40;95337.84;;;11.87;76.26
81608;BME280;71022;48.122;11.576;2023-08-07T02:29:07;95339.47;;;11.68;77.32
81608;BME280;71022;48.122;11.576;2023-08-07T02:31:36;95341.38;;;12.10;75.26
81608;BME280;71022;48.122;11.576;2023-08-07T02:34:03;95343.38;;;12.13;75.36
81608;BME280;71022;48.122;11.576;2023-08-07T02:36:30;95354.72;;;12.08;75.39
81608;BME280;71022;48.122;11.576;2023-08-07T02:38:58;95347.44;;;11.96;76.31
81608;BME280;71022;48.122;11.576;2023-08-07T02:41:25;95355.88;;;12.07;75.70
81608;BME280;71022;48.122;11.576;2023-08-07T02:43:53;95358.91;;;12.25;74.11
81608;BME280;71022;48.122;11.576;2023-08-07T02:46:22;95362.44;;;11.99;75.43
81608;BME280;71022;48.122;11.576;2023-08-07T02:48:50;95370.38;;;12.04;75.08
81608;BME280;71022;48.122;11.576;2023-08-07T02:51:17;95366.53;;;12.35;75.68
81608;BME280;71022;48.122;11.576;2023-08-07T02:53:45;95360.56;;;12.29;74.33
81608;BME280;71022;48.122;11.576;2023-08-07T02:56:12;95358.59;;;12.30;73.97
81608;BME280;71022;48.122;11.576;2023-08-07T02:58:39;95362.16;;;12.30;74.43
81608;BME280;71022;48.122;11.576;2023-08-07T03:01:07;95366.16;;;12.10;72.79
81608;BME280;71022;48.122;11.576;2023-08-07T03:03:36;95360.53;;;11.80;74.02
81608;BME280;71022;48.122;11.576;2023-08-07T03:06:04;95369.06;;;11.52;75.78
81608;BME280;71022;48.122;11.576;2023-08-07T03:08:31;95371.44;;;11.73;74.89
81608;BME280;71022;48.122;11.576;2023-08-07T03:10:58;95372.47;;;11.88;74.39
81608;BME280;71022;48.122;11.576;2023-08-07T03:13:26;95370.88;;;11.87;75.25
81608;BME280;71022;48.122;11.576;2023-08-07T03:16:04;95367.00;;;12.14;74.41
81608;BME280;71022;48.122;11.576;2023-08-07T03:18:32;95369.44;;;12.19;73.36
81608;BME280;71022;48.122;11.576;2023-08-07T03:21:00;95365.56;;;11.97;72.50
81608;BME280;71022;48.122;11.576;2023-08-07T03:23:28;95372.91;;;12.12;74.05
81608;BME280;71022;48.122;11.576;2023-08-07T03:26:08;95366.41;;;12.01;72.57
81608;BME280;71022;48.122;11.576;2023-08-07T03:28:39;95367.94;;;11.99;72.85
81608;BME280;71022;48.122;11.576;2023-08-07T03:31:07;95366.47;;;12.05;72.19
81608;BME280;71022;48.122;11.576;2023-08-07T03:33:36;95379.19;;;11.90;74.29
81608;BME280;71022;48.122;11.576;2023-08-07T03:36:04;95367.81;;;11.92;73.54
81608;BME280;71022;48.122;11.576;2023-08-07T03:38:32;95383.94;;;12.16;72.61
81608;BME280;71022;48.122;11.576;2023-08-07T03:41:00;95375.47;;;12.28;73.02
81608;BME280;71022;48.122;11.576;2023-08-07T03:43:29;95382.59;;;12.29;70.67
81608;BME280;71022;48.122;11.576;2023-08-07T03:45:56;95385.28;;;12.26;70.07
81608;BME280;71022;48.122;11.576;2023-08-07T03:48:30;95378.56;;;12.23;72.16
81608;BME280;71022;48.122;11.576;2023-08-07T03:51:07;95374.03;;;11.89;71.01
81608;BME280;71022;48.122;11.576;2023-08-07T03:53:45;95367.63;;;11.81;71.98
81608;BME280;71022;48.122;11.576;2023-08-07T03:56:15;95381.47;;;11.65;71.84
81608;BME280;71022;48.122;11.576;2023-08-07T03:58:42;95393.50;;;11.77;71.72
81608;BME280;71022;48.122;11.576;2023-08-07T04:01:09;95397.09;;;11.81;72.37
81608;BME280;71022;48.122;11.576;2023-08-07T04:03:39;95394.72;;;12.02;72.24
81608;BME280;71022;48.122;11.576;2023-08-07T04:06:07;95398.91;;;12.18;70.06
81608;BME280;71022;48.122;11.576;2023-08-07T04:08:34;95396.19;;;11.96;70.52
81608;BME280;71022;48.122;11.576;2023-08-07T04:11:05;95398.06;;;11.92;70.88
81608;BME280;71022;48.122;11.576;2023-08-07T04:13:34;95406.56;;;11.83;70.65
81608;BME280;71022;48.122;11.576;2023-08-07T04:16:05;95404.13;;;12.01;69.81
81608;BME280;71022;48.122;11.576;2023-08-07T04:18:33;95402.06;;;11.94;71.30
81608;BME280;71022;48.122;11.576;2023-08-07T04:21:02;95405.28;;;12.23;70.55
81608;BME280;71022;48.122;11.576;2023-08-07T04:23:31;95397.31;;;12.40;69.97
81608;BME280;71022;48.122;11.576;2023-08-07T04:25:59;95393.59;;;12.29;68.22
81608;BME280;71022;48.122;11.576;2023-08-07T04:28:29;95387.00;;;12.11;69.53
81608;BME280;71022;48.122;11.576;2023-08-07T04:30:56;95388.25;;;11.91;69.90
81608;BME280;71022;48.122;11.576;2023-08-07T04:33:24;95406.09;;;11.78;70.27
81608;BME280;71022;48.122;11.576;2023-08-07T04:35:51;95400.59;;;11.78;69.41
81608;BME280;71022;48.122;11.576;2023-08-07T04:38:19;95405.22;;;11.54;69.86
81608;BME280;71022;48.122;11.576;2023-08-07T04:40:47;95405.72;;;11.60;72.12
81608;BME280;71022;48.122;11.576;2023-08-07T04:43:15;95423.94;;;11.68;70.43
81608;BME280;71022;48.122;11.576;2023-08-07T04:45:43;95418.81;;;11.86;69.15
81608;BME280;71022;48.122;11.576;2023-08-07T04:48:13;95423.41;;;12.01;68.75
81608;BME280;71022;48.122;11.576;2023-08-07T04:50:41;95420.91;;;12.15;69.04
81608;BME280;71022;48.122;11.576;2023-08-07T04:53:08;95432.03;;;12.22;69.18
81608;BME280;71022;48.122;11.576;2023-08-07T04:55:35;95424.56;;;12.00;68.14
81608;BME280;71022;48.122;11.576;2023-08-07T04:58:03;95433.13;;;11.95;69.15
81608;BME280;71022;48.122;11.576;2023-08-07T05:00:30;95432.59;;;12.08;67.60
81608;BME280;71022;48.122;11.576;2023-08-07T05:02:58;95427.44;;;12.07;67.32
81608;BME280;71022;48.122;11.576;2023-08-07T05:05:25;95429.91;;;12.12;67.77
81608;BME280;71022;48.122;11.576;2023-08-07T05:07:54;95433.50;;;12.16;67.28
81608;BME280;71022;48.122;11.576;2023-08-07T05:10:21;95435.16;;;12.20;67.57
81608;BME280;71022;48.122;11.576;2023-08-07T05:12:49;95440.53;;;12.13;66.48
81608;BME280;71022;48.122;11.576;2023-08-07T05:15:26;95435.53;;;11.96;67.05
81608;BME280;71022;48.122;11.576;2023-08-07T05:18:19;95443.88;;;11.81;67.92
81608;BME280;71022;48.122;11.576;2023-08-07T05:20:47;95441.53;;;11.83;67.60
81608;BME280;71022;48.122;11.576;2023-08-07T05:23:17;95442.88;;;11.70;66.91
81608;BME280;71022;48.122;11.576;2023-08-07T05:26:05;95446.06;;;11.72;67.84
81608;BME280;71022;48.122;11.576;2023-08-07T05:30:23;95446.75;;;11.68;67.82
81608;BME280;71022;48.122;11.576;2023-08-07T05:36:56;95448.53;;;11.77;66.87
81608;BME280;71022;48.122;11.576;2023-08-07T05:39:23;95457.94;;;11.76;67.38
81608;BME280;71022;48.122;11.576;2023-08-07T05:41:52;95450.53;;;11.60;67.05
81608;BME280;71022;48.122;11.576;2023-08-07T05:44:46;95458.41;;;11.62;67.43
81608;BME280;71022;48.122;11.576;2023-08-07T05:47:22;95467.75;;;11.57;67.04
81608;BME280;71022;48.122;11.576;2023-08-07T05:50:32;95465.34;;;11.56;66.97
81608;BME280;71022;48.122;11.576;2023-08-07T05:53:15;95474.38;;;11.72;67.11
81608;BME280;71022;48.122;11.576;2023-08-07T05:59:34;95475.25;;;11.76;66.21
81608;BME280;71022;48.122;11.576;2023-08-07T06:10:33;95489.03;;;11.60;66.08
81608;BME280;71022;48.122;11.576;2023-08-07T06:17:30;95474.44;;;11.76;65.76
81608;BME280;71022;48.122;11.576;2023-08-07T06:20:25;95490.28;;;11.82;65.83
81608;BME280;71022;48.122;11.576;2023-08-07T06:23:42;95491.38;;;11.78;66.57
81608;BME280;71022;48.122;11.576;2023-08-07T06:26:10;95492.56;;;11.77;65.62
81608;BME280;71022;48.122;11.576;2023-08-07T06:28:37;95496.16;;;11.81;66.37
81608;BME280;71022;48.122;11.576;2023-08-07T06:31:11;95490.56;;;11.96;65.51
81608;BME280;71022;48.122;11.576;2023-08-07T06:33:42;95497.59;;;11.94;65.31
81608;BME280;71022;48.122;11.576;2023-08-07T06:36:12;95482.66;;;11.95;64.71
81608;BME280;71022;48.122;11.576;2023-08-07T06:38:40;95508.00;;;12.04;64.55
81608;BME280;71022;48.122;11.576;2023-08-07T06:41:08;95502.88;;;12.25;63.91
81608;BME280;71022;48.122;11.576;2023-08-07T06:43:39;95492.59;;;12.22;63.53
81608;BME280;71022;48.122;11.576;2023-08-07T06:46:06;95490.81;;;12.56;62.61
81608;BME280;71022;48.122;11.576;2023-08-07T06:48:34;95506.44;;;12.71;62.69
81608;BME280;71022;48.122;11.576;2023-08-07T06:51:02;95479.91;;;13.12;60.11
81608;BME280;71022;48.122;11.576;2023-08-07T06:53:32;95502.19;;;13.26;59.37
81608;BME280;71022;48.122;11.576;2023-08-07T06:56:00;95495.53;;;13.04;59.99
81608;BME280;71022;48.122;11.576;2023-08-07T06:58:29;95518.50;;;13.12;60.22
81608;BME280;71022;48.122;11.576;2023-08-07T07:01:00;95514.38;;;13.02;60.16
81608;BME280;71022;48.122;11.576;2023-08-07T07:03:30;95510.34;;;12.96;60.73
81608;BME280;71022;48.122;11.576;2023-08-07T07:06:03;95488.56;;;13.10;59.74
81608;BME280;71022;48.122;11.576;2023-08-07T07:08:33;95513.94;;;13.49;58.13
81608;BME280;71022;48.122;11.576;2023-08-07T07:11:02;95513.13;;;13.78;56.65
81608;BME280;71022;48.122;11.576;2023-08-07T07:13:31;95520.09;;;13.69;56.61
81608;BME280;71022;48.122;11.576;2023-08-07T07:16:00;95519.72;;;13.70;57.61
81608;BME280;71022;48.122;11.576;2023-08-07T07:18:42;95516.22;;;13.73;56.64
81608;BME280;71022;48.122;11.576;2023-08-07T07:21:13;95513.25;;;14.26;55.69
81608;BME280;71022;48.122;11.576;2023-08-07T07:23:42;95530.78;;;14.84;53.27
81608;BME280;71022;48.122;11.576;2023-08-07T07:26:17;95519.75;;;14.84;52.75
81608;BME280;71022;48.122;11.576;2023-08-07T07:28:45;95521.28;;;14.78;53.47
81608;BME280;71022;48.122;11.576;2023-08-07T07:31:13;95532.97;;;14.61;53.51
81608;BME280;71022;48.122;11.576;2023-08-07T07:33:40;95534.50;;;15.03;52.82
81608;BME280;71022;48.122;11.576;2023-08-07T07:36:16;95557.25;;;15.33;51.68
81608;BME280;71022;48.122;11.576;2023-08-07T07:38:50;95528.28;;;14.65;52.88
81608;BME280;71022;48.122;11.576;2023-08-07T07:41:38;95555.09;;;14.61;54.02
81608;BME280;71022;48.122;11.576;2023-08-07T07:44:09;95547.78;;;14.43;54.13
81608;BME280;71022;48.122;11.576;2023-08-07T07:47:00;95564.72;;;14.08;55.63
81608;BME280;71022;48.122;11.576;2023-08-07T07:49:38;95546.25;;;14.12;55.85
81608;BME280;71022;48.122;11.576;2023-08-07T07:52:20;95559.16;;;14.01;55.93
81608;BME280;71022;48.122;11.576;2023-08-07T07:54:54;95570.56;;;13.99;56.23
81608;BME280;71022;48.122;11.576;2023-08-07T07:57:24;95567.22;;;13.86;55.38
81608;BME280;71022;48.122;11.576;2023-08-07T07:59:57;95575.16;;;13.88;57.21
81608;BME280;71022;48.122;11.576;2023-08-07T08:02:40;95556.00;;;13.72;56.62
81608;BME280;71022;48.122;11.576;2023-08-07T08:05:10;95582.34;;;13.66;56.48
81608;BME280;71022;48.122;11.576;2023-08-07T08:07:39;95578.72;;;13.62;57.17
81608;BME280;71022;48.122;11.576;2023-08-07T08:10:07;95582.22;;;13.59;57.40
81608;BME280;71022;48.122;11.576;2023-08-07T08:12:37;95579.25;;;13.71;57.04
81608;BME280;71022;48.122;11.576;2023-08-07T08:15:05;95583.94;;;13.67;56.52
81608;BME280;71022;48.122;11.576;2023-08-07T08:17:33;95588.50;;;13.56;57.71
81608;BME280;71022;48.122;11.576;2023-08-07T08:20:00;95583.41;;;13.32;57.34
81608;BME280;71022;48.122;11.576;2023-08-07T08:22:27;95588.31;;;13.42;56.63
81608;BME280;71022;48.122;11.576;2023-08-07T08:24:55;95590.00;;;13.50;57.70
81608;BME280;71022;48.122;11.576;2023-08-07T08:27:22;95592.00;;;13.53;57.82
81608;BME280;71022;48.122;11.576;2023-08-07T08:29:52;95594.00;;;13.56;57.20
81608;BME280;71022;48.122;11.576;2023-08-07T08:32:24;95595.72;;;13.64;57.64
81608;BME280;71022;48.122;11.576;2023-08-07T08:35:21;95592.50;;;13.59;58.43
81608;BME280;71022;48.122;11.576;2023-08-07T08:38:13;95599.53;;;13.56;57.35
81608;BME280;71022;48.122;11.576;2023-08-07T08:41:07;95588.88;;;13.55;57.11
81608;BME280;71022;48.122;11.576;2023-08-07T08:43:38;95601.13;;;13.57;57.03
81608;BME280;71022;48.122;11.576;2023-08-07T08:46:17;95600.41;;;13.60;56.49
81608;BME280;71022;48.122;11.576;2023-08-07T08:48:57;95607.41;;;13.54;57.11
81608;BME280;71022;48.122;11.576;2023-08-07T08:51:52;95621.66;;;13.60;57.27
81608;BME280;71022;48.122;11.576;2023-08-07T08:54:35;95614.53;;;13.55;57.90
81608;BME280;71022;48.122;11.576;2023-08-07T08:57:04;95616.69;;;13.69;56.53
81608;BME280;71022;48.122;11.576;2023-08-07T08:59:32;95615.94;;;13.72;57.01
81608;BME280;71022;48.122;11.576;2023-08-07T09:02:01;95613.84;;;13.65;57.30
81608;BME280;71022;48.122;11.576;2023-08-07T09:04:29;95618.84;;;13.82;57.37
81608;BME280;71022;48.122;11.576;2023-08-07T09:06:57;95619.28;;;13.84;57.16
81608;BME280;71022;48.122;11.576;2023-08-07T09:09:25;95622.97;;;13.96;56.02
81608;BME280;71022;48.122;11.576;2023-08-07T09:11:58;95636.47;;;14.01;55.89
81608;BME280;71022;48.122;11.576;2023-08-07T09:14:33;95621.28;;;13.88;56.38
81608;BME280;71022;48.122;11.576;2023-08-07T09:17:14;95622.16;;;13.95;57.18
81608;BME280;71022;48.122;11.576;2023-08-07T09:19:45;95618.47;;;13.84;56.42
81608;BME280;71022;48.122;11.576;2023-08-07T09:22:24;95628.94;;;13.98;56.02
81608;BME280;71022;48.122;11.576;2023-08-07T09:24:52;95629.81;;;14.05;56.03
81608;BME280;71022;48.122;11.576;2023-08-07T09:27:20;95633.25;;;13.99;55.70
81608;BME280;71022;48.122;11.576;2023-08-07T09:29:54;95620.53;;;13.91;55.98
81608;BME280;71022;48.122;11.576;2023-08-07T09:32:22;95626.91;;;13.95;56.81
81608;BME280;71022;48.122;11.576;2023-08-07T09:34:51;95642.47;;;14.10;56.18
81608;BME280;71022;48.122;11.576;2023-08-07T09:37:23;95634.09;;;14.03;56.22
81608;BME280;71022;48.122;11.576;2023-08-07T09:39:51;95628.75;;;13.87;56.57
81608;BME280;71022;48.122;11.576;2023-08-07T09:42:18;95627.66;;;13.92;56.72
81608;BME280;71022;48.122;11.576;2023-08-07T09:44:47;95635.03;;;14.14;57.40
81608;BME280;71022;48.122;11.576;2023-08-07T09:47:27;95625.13;;;14.39;57.06
81608;BME280;71022;48.122;11.576;2023-08-07T09:49:58;95635.19;;;14.58;55.44
81608;BME280;71022;48.122;11.576;2023-08-07T09:52:29;95624.22;;;14.65;55.51
81608;BME280;71022;48.122;11.576;2023-08-07T09:55:09;95620.78;;;14.75;55.67
81608;BME280;71022;48.122;11.576;2023-08-07T09:57:50;95624.13;;;14.94;54.75
81608;BME280;71022;48.122;11.576;2023-08-07T10:00:36;95617.31;;;14.85;55.17
81608;BME280;71022;48.122;11.576;2023-08-07T10:03:14;95598.75;;;14.85;54.99
81608;BME280;71022;48.122;11.576;2023-08-07T10:05:43;95607.63;;;15.02;54.33
81608;BME280;71022;48.122;11.576;2023-08-07T10:08:11;95613.63;;;15.11;53.63
81608;BME280;71022;48.122;11.576;2023-08-07T10:10:39;95621.34;;;15.35;53.56
81608;BME280;71022;48.122;11.576;2023-08-07T10:13:07;95620.59;;;15.45;53.39
81608;BME280;71022;48.122;11.576;2023-08-07T10:15:34;95614.44;;;15.62;53.78
81608;BME280;71022;48.122;11.576;2023-08-07T10:18:04;95621.69;;;15.84;53.00
81608;BME280;71022;48.122;11.576;2023-08-07T10:20:32;95615.78;;;15.89;51.39
81608;BME280;71022;48.122;11.576;2023-08-07T10:23:10;95623.34;;;15.96;51.02
81608;BME280;71022;48.122;11.576;2023-08-07T10:25:40;95618.66;;;16.03;51.18
81608;BME280;71022;48.122;11.576;2023-08-07T10:28:11;95608.03;;;16.13;51.24
81608;BME280;71022;48.122;11.576;2023-08-07T10:30:41;95615.94;;;16.18;50.73
81608;BME280;71022;48.122;11.576;2023-08-07T10:33:10;95610.16;;;16.51;50.57
81608;BME280;71022;48.122;11.576;2023-08-07T10:35:45;95601.19;;;16.96;49.80
81608;BME280;71022;48.122;11.576;2023-08-07T10:38:13;95603.16;;;17.24;48.94
81608;BME280;71022;48.122;11.576;2023-08-07T10:43:30;95600.38;;;16.99;48.42
81608;BME280;71022;48.122;11.576;2023-08-07T10:46:10;95599.16;;;16.72;49.04
81608;BME280;71022;48.122;11.576;2023-08-07T10:48:40;95601.06;;;16.54;49.06
81608;BME280;71022;48.122;11.576;2023-08-07T10:51:07;95597.47;;;16.50;49.41
81608;BME280;71022;48.122;11.576;2023-08-07T10:53:41;95602.72;;;16.69;50.18
81608;BME280;71022;48.122;11.576;2023-08-07T10:56:32;95590.41;;;16.63;50.24
81608;BME280;71022;48.122;11.576;2023-08-07T10:59:08;95590.84;;;16.83;51.36
81608;BME280;71022;48.122;11.576;2023-08-07T11:01:43;95601.97;;;17.07;51.03
81608;BME280;71022;48.122;11.576;2023-08-07T11:04:12;95593.25;;;17.12;48.96
81608;BME280;71022;48.122;11.576;2023-08-07T11:06:42;95588.06;;;16.86;48.43
81608;BME280;71022;48.122;11.576;2023-08-07T11:09:10;95590.44;;;16.88;49.43
81608;BME280;71022;48.122;11.576;2023-08-07T11:11:47;95588.09;;;16.93;49.30
81608;BME280;71022;48.122;11.576;2023-08-07T11:14:17;95591.25;;;17.24;49.45
81608;BME280;71022;48.122;11.576;2023-08-07T11:16:46;95574.59;;;17.41;48.70
81608;BME280;71022;48.122;11.576;2023-08-07T11:19:15;95583.34;;;17.68;49.18
81608;BME280;71022;48.122;11.576;2023-08-07T11:21:43;95585.69;;;17.94;49.46
81608;BME280;71022;48.122;11.576;2023-08-07T11:24:15;95588.41;;;18.15;47.32
81608;BME280;71022;48.122;11.576;2023-08-07T11:26:45;95574.13;;;18.03;45.71
81608;BME280;71022;48.122;11.576;2023-08-07T11:29:18;95584.09;;;17.86;46.75
81608;BME280;71022;48.122;11.576;2023-08-07T11:31:46;95590.47;;;17.69;46.64
81608;BME280;71022;48.122;11.576;2023-08-07T11:34:14;95586.53;;;17.35;48.38
81608;BME280;71022;48.122;11.576;2023-08-07T11:36:44;95585.72;;;17.09;49.65
81608;BME280;71022;48.122;11.576;2023-08-07T11:39:13;95588.06;;;16.79;50.74
81608;BME280;71022;48.122;11.576;2023-08-07T11:41:40;95600.72;;;16.66;51.06
81608;BME280;71022;48.122;11.576;2023-08-07T11:44:08;95595.06;;;16.45;51.06
81608;BME280;71022;48.122;11.576;2023-08-07T11:46:35;95598.19;;;16.33;51.55
81608;BME280;71022;48.122;11.576;2023-08-07T11:49:04;95610.03;;;16.23;51.63
81608;BME280;71022;48.122;11.576;2023-08-07T11:51:32;95610.03;;;16.23;50.96
81608;BME280;71022;48.122;11.576;2023-08-07T11:54:00;95606.81;;;16.14;50.68
81608;BME280;71022;48.122;11.576;2023-08-07T11:56:27;95598.03;;;15.97;50.53
81608;BME280;71022;48.122;11.576;2023-08-07T11:58:56;95600.06;;;16.08;50.33
81608;BME280;71022;48.122;11.576;2023-08-07T12:01:25;95611.66;;;16.27;50.23
81608;BME280;71022;48.122;11.576;2023-08-07T12:06:32;95623.50;;;16.28;50.09
81608;BME280;71022;48.122;11.576;2023-08-07T12:09:01;95619.22;;;16.41;48.05
81608;BME280;71022;48.122;11.576;2023-08-07T12:11:29;95625.84;;;16.15;48.65
81608;BME280;71022;48.122;11.576;2023-08-07T12:14:00;95626.69;;;16.30;49.62
81608;BME280;71022;48.122;11.576;2023-08-07T12:16:33;95624.88;;;16.62;47.99
81608;BME280;71022;48.122;11.576;2023-08-07T12:19:00;95632.03;;;16.77;48.34
81608;BME280;71022;48.122;11.576;2023-08-07T12:21:29;95628.03;;;16.57;47.33
81608;BME280;71022;48.122;11.576;2023-08-07T12:23:59;95635.94;;;16.62;48.03
81608;BME280;71022;48.122;11.576;2023-08-07T12:26:31;95623.75;;;16.91;47.23
81608;BME280;71022;48.122;11.576;2023-08-07T12:28:59;95632.47;;;17.00;46.96
81608;BME280;71022;48.122;11.576;2023-08-07T12:31:26;95621.00;;;17.12;45.70
81608;BME280;71022;48.122;11.576;2023-08-07T12:33:54;95629.75;;;17.36;45.07
81608;BME280;71022;48.122;11.576;2023-08-07T12:36:23;95623.38;;;17.03;43.98
81608;BME280;71022;48.122;11.576;2023-08-07T12:38:50;95627.75;;;17.04;45.28
81608;BME280;71022;48.122;11.576;2023-08-07T12:41:18;95631.69;;;17.17;44.28
81608;BME280;71022;48.122;11.576;2023-08-07T12:43:48;95620.22;;;17.37;43.41
81608;BME280;71022;48.122;11.576;2023-08-07T12:46:16;95627.38;;;17.31;43.06
81608;BME280;71022;48.122;11.576;2023-08-07T12:48:46;95624.59;;;17.20;43.21
81608;BME280;71022;48.122;11.576;2023-08-07T12:51:13;95635.66;;;17.09;44.32
81608;BME280;71022;48.122;11.576;2023-08-07T12:53:41;95631.69;;;16.89;44.85
81608;BME280;71022;48.122;11.576;2023-08-07T12:56:12;95645.09;;;16.66;45.46
81608;BME280;71022;48.122;11.576;2023-08-07T12:58:40;95641.56;;;16.83;46.23
81608;BME280;71022;48.122;11.576;2023-08-07T13:01:09;95643.50;;;16.76;45.76
81608;BME280;71022;48.122;11.576;2023-08-07T13:03:38;95651.44;;;16.74;46.21
81608;BME280;71022;48.122;11.576;2023-08-07T13:06:08;95644.72;;;16.85;45.87
81608;BME280;71022;48.122;11.576;2023-08-07T13:08:39;95640.41;;;16.98;45.92
81608;BME280;71022;48.122;11.576;2023-08-07T13:11:06;95647.13;;;16.97;45.78
81608;BME280;71022;48.122;11.576;2023-08-07T13:13:34;95640.03;;;16.96;46.43
81608;BME280;71022;48.122;11.576;2023-08-07T13:16:01;95657.09;;;17.20;45.80
81608;BME280;71022;48.122;11.576;2023-08-07T13:18:31;95652.38;;;17.38;44.46
81608;BME280;71022;48.122;11.576;2023-08-07T13:20:59;95653.16;;;17.49;42.57
81608;BME280;71022;48.122;11.576;2023-08-07T13:23:26;95645.22;;;17.86;41.50
81608;BME280;71022;48.122;11.576;2023-08-07T13:25:53;95655.53;;;18.03;40.60
81608;BME280;71022;48.122;11.576;2023-08-07T13:28:21;95659.44;;;18.20;39.11
81608;BME280;71022;48.122;11.576;2023-08-07T13:30:48;95661.84;;;18.14;39.08
81608;BME280;71022;48.122;11.576;2023-08-07T13:33:17;95662.69;;;17.76;40.40
81608;BME280;71022;48.122;11.576;2023-08-07T13:35:44;95666.63;;;17.40;42.06
81608;BME280;71022;48.122;11.576;2023-08-07T13:38:11;95680.88;;;17.21;44.15
81608;BME280;71022;48.122;11.576;2023-08-07T13:40:40;95684.38;;;16.89;43.55
81608;BME280;71022;48.122;11.576;2023-08-07T13:43:07;95688.16;;;16.49;44.53